sensor_id;sensor_type;location;lat;lon;timestamp;temperature;humidity
37222;DHT22;23119;51.842;-2.230;2023-06-19T00:01:11;18.50;99.90
37222;DHT22;23119;51.842;-2.230;2023-06-19T00:03:39;18.40;99.90
37222;DHT22;23119;51.842;-2.230;2023-06-19T00:06:06;18.40;99.90
37222;DHT22;23119;51.842;-2.230;2023-06-19T00:08:34;18.30;99.90
37222;DHT22;23119;51.842;-2.230;2023-06-19T00:11:03;18.40;99.90
37222;DHT22;23119;51.842;-2.230;2023-06-19T00:13:31;18.30;99.90
37222;DHT22;23119;51.842;-2.230;2023-06-19T00:15:59;18.30;99.90
37222;DHT22;23119;51.842;-2.230;2023-06-19T00:18:28;18.30;99.90
37222;DHT22;23119;51.842;-2.230;2023-06-19T00:21:07;18.20;99.90
37222;DHT22;23119;51.842;-2.230;2023-06-19T00:23:35;18.20;99.90
37222;DHT22;23119;51.842;-2.230;2023-06-19T00:26:01;18.10;99.90
37222;DHT22;23119;51.842;-2.230;2023-06-19T00:28:47;18.10;99.90
37222;DHT22;23119;51.842;-2.230;2023-06-19T00:31:15;18.00;99.90
37222;DHT22;23119;51.842;-2.230;2023-06-19T00:33:44;18.00;99.90
37222;DHT22;23119;51.842;-2.230;2023-06-19T00:36:14;18.00;99.90
37222;DHT22;23119;51.842;-2.230;2023-06-19T00:38:41;18.00;99.90
37222;DHT22;23119;51.842;-2.230;2023-06-19T00:41:12;18.00;99.90
37222;DHT22;23119;51.842;-2.230;2023-06-19T00:43:40;17.90;99.90
37222;DHT22;23119;51.842;-2.230;2023-06-19T00:46:13;17.90;99.90
37222;DHT22;23119;51.842;-2.230;2023-06-19T00:48:42;17.90;99.90
37222;DHT22;23119;51.842;-2.230;2023-06-19T00:51:08;17.80;99.90
37222;DHT22;23119;51.842;-2.230;2023-06-19T00:53:33;17.70;99.90
37222;DHT22;23119;51.842;-2.230;2023-06-19T00:56:00;17.80;99.90
37222;DHT22;23119;51.842;-2.230;2023-06-19T00:58:28;17.70;99.90
37222;DHT22;23119;51.842;-2.230;2023-06-19T01:00:57;17.60;99.90
37222;DHT22;23119;51.842;-2.230;2023-06-19T01:03:23;17.60;99.90
37222;DHT22;23119;51.842;-2.230;2023-06-19T01:05:54;17.60;99.90
37222;DHT22;23119;51.842;-2.230;2023-06-19T01:11:15;17.60;99.90
37222;DHT22;23119;51.842;-2.230;2023-06-19T01:13:59;17.60;99.90
37222;DHT22;23119;51.842;-2.230;2023-06-19T01:16:29;17.50;99.90
37222;DHT22;23119;51.842;-2.230;2023-06-19T01:18:59;17.60;99.90
37222;DHT22;23119;51.842;-2.230;2023-06-19T01:21:28;17.50;99.90
37222;DHT22;23119;51.842;-2.230;2023-06-19T01:23:54;17.50;99.90
37222;DHT22;23119;51.842;-2.230;2023-06-19T01:26:23;17.50;99.90
37222;DHT22;23119;51.842;-2.230;2023-06-19T01:28:53;17.50;99.90
37222;DHT22;23119;51.842;-2.230;2023-06-19T01:31:55;17.50;99.90
37222;DHT22;23119;51.842;-2.230;2023-06-19T01:34:28;17.40;99.90
37222;DHT22;23119;51.842;-2.230;2023-06-19T01:36:57;17.40;99.90
37222;DHT22;23119;51.842;-2.230;2023-06-19T01:39:27;17.40;99.90
37222;DHT22;23119;51.842;-2.230;2023-06-19T01:41:56;17.40;99.90
37222;DHT22;23119;51.842;-2.230;2023-06-19T01:44:24;17.50;99.90
37222;DHT22;23119;51.842;-2.230;2023-06-19T01:46:53;17.40;99.90
37222;DHT22;23119;51.842;-2.230;2023-06-19T01:49:21;17.40;99.90
37222;DHT22;23119;51.842;-2.230;2023-06-19T01:51:47;17.40;99.90
37222;DHT22;23119;51.842;-2.230;2023-06-19T01:54:15;17.40;99.90
37222;DHT22;23119;51.842;-2.230;2023-06-19T01:56:41;17.40;99.90
37222;DHT22;23119;51.842;-2.230;2023-06-19T01:59:07;17.40;99.90
37222;DHT22;23119;51.842;-2.230;2023-06-19T02:01:35;17.40;99.90
37222;DHT22;23119;51.842;-2.230;2023-06-19T02:04:08;17.30;99.90
37222;DHT22;23119;51.842;-2.230;2023-06-19T02:06:34;17.30;99.90
37222;DHT22;23119;51.842;-2.230;2023-06-19T02:09:05;17.30;99.90
37222;DHT22;23119;51.842;-2.230;2023-06-19T02:11:30;17.30;99.90
37222;DHT22;23119;51.842;-2.230;2023-06-19T02:13:56;17.30;99.90
37222;DHT22;23119;51.842;-2.230;2023-06-19T02:16:29;17.30;99.90
37222;DHT22;23119;51.842;-2.230;2023-06-19T02:18:58;17.30;99.90
37222;DHT22;23119;51.842;-2.230;2023-06-19T02:21:23;17.30;99.90
37222;DHT22;23119;51.842;-2.230;2023-06-19T02:23:51;17.30;99.90
37222;DHT22;23119;51.842;-2.230;2023-06-19T02:26:25;17.30;99.90
37222;DHT22;23119;51.842;-2.230;2023-06-19T02:28:56;17.30;99.90
37222;DHT22;23119;51.842;-2.230;2023-06-19T02:31:27;17.20;99.90
37222;DHT22;23119;51.842;-2.230;2023-06-19T02:33:53;17.20;99.90
37222;DHT22;23119;51.842;-2.230;2023-06-19T02:36:18;17.20;99.90
37222;DHT22;23119;51.842;-2.230;2023-06-19T02:38:46;17.10;99.90
37222;DHT22;23119;51.842;-2.230;2023-06-19T02:41:12;17.20;99.90
37222;DHT22;23119;51.842;-2.230;2023-06-19T02:43:42;17.20;99.90
37222;DHT22;23119;51.842;-2.230;2023-06-19T02:46:13;17.10;99.90
37222;DHT22;23119;51.842;-2.230;2023-06-19T02:48:47;17.20;99.90
37222;DHT22;23119;51.842;-2.230;2023-06-19T02:51:25;17.10;99.90
37222;DHT22;23119;51.842;-2.230;2023-06-19T02:53:54;17.10;99.90
37222;DHT22;23119;51.842;-2.230;2023-06-19T02:56:19;17.10;99.90
37222;DHT22;23119;51.842;-2.230;2023-06-19T02:58:45;17.10;99.90
37222;DHT22;23119;51.842;-2.230;2023-06-19T03:01:10;17.10;99.90
37222;DHT22;23119;51.842;-2.230;2023-06-19T03:03:38;17.00;99.90
37222;DHT22;23119;51.842;-2.230;2023-06-19T03:06:07;17.00;99.90
37222;DHT22;23119;51.842;-2.230;2023-06-19T03:08:38;17.00;99.90
37222;DHT22;23119;51.842;-2.230;2023-06-19T03:11:04;17.00;99.90
37222;DHT22;23119;51.842;-2.230;2023-06-19T03:13:54;17.00;99.90
37222;DHT22;23119;51.842;-2.230;2023-06-19T03:16:20;17.00;99.90
37222;DHT22;23119;51.842;-2.230;2023-06-19T03:18:51;17.00;99.90
37222;DHT22;23119;51.842;-2.230;2023-06-19T03:21:16;16.90;99.90
37222;DHT22;23119;51.842;-2.230;2023-06-19T03:23:47;17.00;99.90
37222;DHT22;23119;51.842;-2.230;2023-06-19T03:26:13;16.90;99.90
37222;DHT22;23119;51.842;-2.230;2023-06-19T03:28:44;16.80;99.90
37222;DHT22;23119;51.842;-2.230;2023-06-19T03:31:15;16.90;99.90
37222;DHT22;23119;51.842;-2.230;2023-06-19T03:33:41;16.80;99.90
37222;DHT22;23119;51.842;-2.230;2023-06-19T03:36:06;16.80;99.90
37222;DHT22;23119;51.842;-2.230;2023-06-19T03:38:33;16.80;99.90
37222;DHT22;23119;51.842;-2.230;2023-06-19T03:41:01;16.80;99.90
37222;DHT22;23119;51.842;-2.230;2023-06-19T03:43:31;16.80;99.90
37222;DHT22;23119;51.842;-2.230;2023-06-19T03:45:57;16.70;99.90
37222;DHT22;23119;51.842;-2.230;2023-06-19T03:48:25;16.70;99.90
37222;DHT22;23119;51.842;-2.230;2023-06-19T03:50:51;16.80;99.90
37222;DHT22;23119;51.842;-2.230;2023-06-19T03:53:20;16.70;99.90
37222;DHT22;23119;51.842;-2.230;2023-06-19T03:55:48;16.70;99.90
37222;DHT22;23119;51.842;-2.230;2023-06-19T03:58:16;16.80;99.90
37222;DHT22;23119;51.842;-2.230;2023-06-19T04:00:42;16.80;99.90
37222;DHT22;23119;51.842;-2.230;2023-06-19T04:03:13;16.80;99.90
37222;DHT22;23119;51.842;-2.230;2023-06-19T04:05:41;16.70;99.90
37222;DHT22;23119;51.842;-2.230;2023-06-19T04:08:07;16.80;99.90
37222;DHT22;23119;51.842;-2.230;2023-06-19T04:10:33;16.90;99.90
37222;DHT22;23119;51.842;-2.230;2023-06-19T04:13:04;17.00;99.90
37222;DHT22;23119;51.842;-2.230;2023-06-19T04:15:37;17.10;99.90
37222;DHT22;23119;51.842;-2.230;2023-06-19T04:18:05;17.20;99.90
37222;DHT22;23119;51.842;-2.230;2023-06-19T04:20:31;17.40;99.90
37222;DHT22;23119;51.842;-2.230;2023-06-19T04:23:01;17.80;99.90
37222;DHT22;23119;51.842;-2.230;2023-06-19T04:25:31;18.20;99.90
37222;DHT22;23119;51.842;-2.230;2023-06-19T04:28:04;18.60;99.90
37222;DHT22;23119;51.842;-2.230;2023-06-19T04:30:30;19.00;99.90
37222;DHT22;23119;51.842;-2.230;2023-06-19T04:32:59;19.60;99.90
37222;DHT22;23119;51.842;-2.230;2023-06-19T04:35:30;20.10;99.90
37222;DHT22;23119;51.842;-2.230;2023-06-19T04:37:55;20.70;99.90
37222;DHT22;23119;51.842;-2.230;2023-06-19T04:40:21;21.30;99.90
37222;DHT22;23119;51.842;-2.230;2023-06-19T04:42:47;21.80;99.90
37222;DHT22;23119;51.842;-2.230;2023-06-19T04:45:16;22.10;99.90
37222;DHT22;23119;51.842;-2.230;2023-06-19T04:47:42;22.20;99.90
37222;DHT22;23119;51.842;-2.230;2023-06-19T04:50:10;22.30;99.90
37222;DHT22;23119;51.842;-2.230;2023-06-19T04:52:35;22.70;99.90
37222;DHT22;23119;51.842;-2.230;2023-06-19T04:55:06;22.80;99.90
37222;DHT22;23119;51.842;-2.230;2023-06-19T04:57:44;22.90;99.90
37222;DHT22;23119;51.842;-2.230;2023-06-19T05:00:10;22.80;99.90
37222;DHT22;23119;51.842;-2.230;2023-06-19T05:02:36;23.30;99.90
37222;DHT22;23119;51.842;-2.230;2023-06-19T05:05:10;24.20;99.90
37222;DHT22;23119;51.842;-2.230;2023-06-19T05:07:40;24.70;99.90
37222;DHT22;23119;51.842;-2.230;2023-06-19T05:10:15;24.50;99.90
37222;DHT22;23119;51.842;-2.230;2023-06-19T05:12:40;24.20;99.90
37222;DHT22;23119;51.842;-2.230;2023-06-19T05:15:07;24.60;99.90
37222;DHT22;23119;51.842;-2.230;2023-06-19T05:17:35;25.60;99.90
37222;DHT22;23119;51.842;-2.230;2023-06-19T05:20:07;26.60;99.40
37222;DHT22;23119;51.842;-2.230;2023-06-19T05:22:35;27.40;98.40
37222;DHT22;23119;51.842;-2.230;2023-06-19T05:25:02;27.30;97.50
37222;DHT22;23119;51.842;-2.230;2023-06-19T05:27:32;26.90;97.80
37222;DHT22;23119;51.842;-2.230;2023-06-19T05:30:00;26.20;97.90
37222;DHT22;23119;51.842;-2.230;2023-06-19T05:32:28;25.50;98.20
37222;DHT22;23119;51.842;-2.230;2023-06-19T05:34:56;25.20;98.80
37222;DHT22;23119;51.842;-2.230;2023-06-19T05:37:26;25.30;99.10
37222;DHT22;23119;51.842;-2.230;2023-06-19T05:39:54;26.10;98.40
37222;DHT22;23119;51.842;-2.230;2023-06-19T05:42:22;25.90;97.10
37222;DHT22;23119;51.842;-2.230;2023-06-19T05:44:48;25.70;98.00
37222;DHT22;23119;51.842;-2.230;2023-06-19T05:47:16;25.00;98.30
37222;DHT22;23119;51.842;-2.230;2023-06-19T05:49:44;24.50;99.00
37222;DHT22;23119;51.842;-2.230;2023-06-19T05:52:10;24.80;99.60
37222;DHT22;23119;51.842;-2.230;2023-06-19T05:54:36;25.80;98.30
37222;DHT22;23119;51.842;-2.230;2023-06-19T05:57:04;26.00;98.10
37222;DHT22;23119;51.842;-2.230;2023-06-19T05:59:30;25.70;98.10
37222;DHT22;23119;51.842;-2.230;2023-06-19T06:01:58;26.50;97.80
37222;DHT22;23119;51.842;-2.230;2023-06-19T06:04:24;27.30;95.90
37222;DHT22;23119;51.842;-2.230;2023-06-19T06:06:49;28.60;95.30
37222;DHT22;23119;51.842;-2.230;2023-06-19T06:09:15;30.10;93.70
37222;DHT22;23119;51.842;-2.230;2023-06-19T06:11:44;31.30;92.40
37222;DHT22;23119;51.842;-2.230;2023-06-19T06:14:10;32.40;91.00
37222;DHT22;23119;51.842;-2.230;2023-06-19T06:16:36;33.60;90.00
37222;DHT22;23119;51.842;-2.230;2023-06-19T06:19:02;34.70;87.10
37222;DHT22;23119;51.842;-2.230;2023-06-19T06:21:28;34.90;85.30
37222;DHT22;23119;51.842;-2.230;2023-06-19T06:23:56;34.00;85.60
37222;DHT22;23119;51.842;-2.230;2023-06-19T06:26:24;33.50;86.20
37222;DHT22;23119;51.842;-2.230;2023-06-19T06:28:50;32.40;86.70
37222;DHT22;23119;51.842;-2.230;2023-06-19T06:31:15;31.10;88.60
37222;DHT22;23119;51.842;-2.230;2023-06-19T06:33:41;30.30;90.10
37222;DHT22;23119;51.842;-2.230;2023-06-19T06:36:07;29.90;90.50
37222;DHT22;23119;51.842;-2.230;2023-06-19T06:38:32;29.80;90.60
37222;DHT22;23119;51.842;-2.230;2023-06-19T06:40:58;29.70;90.70
37222;DHT22;23119;51.842;-2.230;2023-06-19T06:43:24;29.70;90.80
37222;DHT22;23119;51.842;-2.230;2023-06-19T06:45:50;30.00;90.80
37222;DHT22;23119;51.842;-2.230;2023-06-19T06:48:18;29.60;90.90
37222;DHT22;23119;51.842;-2.230;2023-06-19T06:50:47;29.00;91.50
37222;DHT22;23119;51.842;-2.230;2023-06-19T06:53:13;29.60;91.40
37222;DHT22;23119;51.842;-2.230;2023-06-19T06:55:38;31.20;90.30
37222;DHT22;23119;51.842;-2.230;2023-06-19T06:58:13;33.00;88.00
37222;DHT22;23119;51.842;-2.230;2023-06-19T07:00:39;34.40;85.70
37222;DHT22;23119;51.842;-2.230;2023-06-19T07:03:05;33.50;84.50
37222;DHT22;23119;51.842;-2.230;2023-06-19T07:05:31;32.90;85.60
37222;DHT22;23119;51.842;-2.230;2023-06-19T07:07:56;32.30;85.90
37222;DHT22;23119;51.842;-2.230;2023-06-19T07:10:25;32.00;87.00
37222;DHT22;23119;51.842;-2.230;2023-06-19T07:12:50;31.80;87.70
37222;DHT22;23119;51.842;-2.230;2023-06-19T07:15:16;31.40;88.30
37222;DHT22;23119;51.842;-2.230;2023-06-19T07:17:46;30.70;89.40
37222;DHT22;23119;51.842;-2.230;2023-06-19T07:20:14;30.20;90.10
37222;DHT22;23119;51.842;-2.230;2023-06-19T07:22:41;30.10;90.50
37222;DHT22;23119;51.842;-2.230;2023-06-19T07:25:07;31.70;88.80
37222;DHT22;23119;51.842;-2.230;2023-06-19T07:27:33;32.90;86.90
37222;DHT22;23119;51.842;-2.230;2023-06-19T07:30:02;34.40;84.90
37222;DHT22;23119;51.842;-2.230;2023-06-19T07:32:30;35.80;82.50
37222;DHT22;23119;51.842;-2.230;2023-06-19T07:34:55;36.70;81.00
37222;DHT22;23119;51.842;-2.230;2023-06-19T07:37:21;37.90;78.30
37222;DHT22;23119;51.842;-2.230;2023-06-19T07:39:50;38.60;76.60
37222;DHT22;23119;51.842;-2.230;2023-06-19T07:42:17;39.30;74.70
37222;DHT22;23119;51.842;-2.230;2023-06-19T07:44:43;39.80;73.80
37222;DHT22;23119;51.842;-2.230;2023-06-19T07:47:11;40.30;72.90
37222;DHT22;23119;51.842;-2.230;2023-06-19T07:49:38;40.00;72.90
37222;DHT22;23119;51.842;-2.230;2023-06-19T07:52:07;39.80;72.50
37222;DHT22;23119;51.842;-2.230;2023-06-19T07:54:51;39.80;71.30
37222;DHT22;23119;51.842;-2.230;2023-06-19T07:57:20;39.70;70.00
37222;DHT22;23119;51.842;-2.230;2023-06-19T07:59:49;39.70;70.90
37222;DHT22;23119;51.842;-2.230;2023-06-19T08:02:18;39.40;72.10
37222;DHT22;23119;51.842;-2.230;2023-06-19T08:04:45;38.30;72.70
37222;DHT22;23119;51.842;-2.230;2023-06-19T08:07:22;37.20;74.20
37222;DHT22;23119;51.842;-2.230;2023-06-19T08:09:51;36.10;75.80
37222;DHT22;23119;51.842;-2.230;2023-06-19T08:12:19;35.20;76.80
37222;DHT22;23119;51.842;-2.230;2023-06-19T08:14:47;35.10;77.40
37222;DHT22;23119;51.842;-2.230;2023-06-19T08:17:16;34.70;77.90
37222;DHT22;23119;51.842;-2.230;2023-06-19T08:19:42;34.20;78.10
37222;DHT22;23119;51.842;-2.230;2023-06-19T08:22:08;33.80;78.80
37222;DHT22;23119;51.842;-2.230;2023-06-19T08:24:36;33.80;79.70
37222;DHT22;23119;51.842;-2.230;2023-06-19T08:27:04;34.00;79.50
37222;DHT22;23119;51.842;-2.230;2023-06-19T08:29:30;33.90;78.70
37222;DHT22;23119;51.842;-2.230;2023-06-19T08:31:56;33.90;78.90
37222;DHT22;23119;51.842;-2.230;2023-06-19T08:34:21;33.90;78.40
37222;DHT22;23119;51.842;-2.230;2023-06-19T08:36:47;33.80;78.20
37222;DHT22;23119;51.842;-2.230;2023-06-19T08:39:13;33.40;78.70
37222;DHT22;23119;51.842;-2.230;2023-06-19T08:41:39;33.30;79.40
37222;DHT22;23119;51.842;-2.230;2023-06-19T08:44:09;33.20;79.50
37222;DHT22;23119;51.842;-2.230;2023-06-19T08:46:38;33.10;79.80
37222;DHT22;23119;51.842;-2.230;2023-06-19T08:49:07;32.90;78.90
37222;DHT22;23119;51.842;-2.230;2023-06-19T08:51:35;32.70;80.30
37222;DHT22;23119;51.842;-2.230;2023-06-19T08:54:08;32.50;80.00
37222;DHT22;23119;51.842;-2.230;2023-06-19T08:56:36;32.00;80.40
37222;DHT22;23119;51.842;-2.230;2023-06-19T08:59:18;31.50;81.30
37222;DHT22;23119;51.842;-2.230;2023-06-19T09:01:51;31.00;82.20
37222;DHT22;23119;51.842;-2.230;2023-06-19T09:04:19;30.30;83.00
37222;DHT22;23119;51.842;-2.230;2023-06-19T09:06:51;29.80;83.70
37222;DHT22;23119;51.842;-2.230;2023-06-19T09:09:23;29.30;84.80
37222;DHT22;23119;51.842;-2.230;2023-06-19T09:12:07;29.30;85.60
37222;DHT22;23119;51.842;-2.230;2023-06-19T09:14:40;29.20;85.30
37222;DHT22;23119;51.842;-2.230;2023-06-19T09:17:21;29.00;85.50
37222;DHT22;23119;51.842;-2.230;2023-06-19T09:19:51;28.60;85.70
37222;DHT22;23119;51.842;-2.230;2023-06-19T09:22:18;28.30;86.40
37222;DHT22;23119;51.842;-2.230;2023-06-19T09:24:49;28.00;87.20
37222;DHT22;23119;51.842;-2.230;2023-06-19T09:27:19;27.90;88.30
37222;DHT22;23119;51.842;-2.230;2023-06-19T09:29:49;28.10;88.50
37222;DHT22;23119;51.842;-2.230;2023-06-19T09:32:35;28.40;88.30
37222;DHT22;23119;51.842;-2.230;2023-06-19T09:35:04;28.60;87.90
37222;DHT22;23119;51.842;-2.230;2023-06-19T09:37:30;28.50;87.70
37222;DHT22;23119;51.842;-2.230;2023-06-19T09:39:59;28.40;87.70
37222;DHT22;23119;51.842;-2.230;2023-06-19T09:42:34;28.40;88.00
37222;DHT22;23119;51.842;-2.230;2023-06-19T09:45:04;28.30;88.00
37222;DHT22;23119;51.842;-2.230;2023-06-19T09:47:37;28.10;88.30
37222;DHT22;23119;51.842;-2.230;2023-06-19T09:50:04;28.00;88.90
37222;DHT22;23119;51.842;-2.230;2023-06-19T09:52:30;28.00;89.10
37222;DHT22;23119;51.842;-2.230;2023-06-19T09:55:04;28.30;89.30
37222;DHT22;23119;51.842;-2.230;2023-06-19T09:57:32;28.70;88.80
37222;DHT22;23119;51.842;-2.230;2023-06-19T09:59:59;28.90;88.30
37222;DHT22;23119;51.842;-2.230;2023-06-19T10:02:35;28.90;88.50
37222;DHT22;23119;51.842;-2.230;2023-06-19T10:05:05;29.00;88.30
37222;DHT22;23119;51.842;-2.230;2023-06-19T10:07:35;29.10;88.10
37222;DHT22;23119;51.842;-2.230;2023-06-19T10:10:08;29.20;87.80
37222;DHT22;23119;51.842;-2.230;2023-06-19T10:12:44;29.10;87.60
37222;DHT22;23119;51.842;-2.230;2023-06-19T10:18:04;28.90;88.50
37222;DHT22;23119;51.842;-2.230;2023-06-19T10:20:40;29.10;88.70
37222;DHT22;23119;51.842;-2.230;2023-06-19T10:23:12;29.40;88.20
37222;DHT22;23119;51.842;-2.230;2023-06-19T10:32:22;30.20;87.30
37222;DHT22;23119;51.842;-2.230;2023-06-19T10:34:48;30.50;87.10
37222;DHT22;23119;51.842;-2.230;2023-06-19T10:37:17;30.70;86.50
37222;DHT22;23119;51.842;-2.230;2023-06-19T10:39:45;30.70;86.20
37222;DHT22;23119;51.842;-2.230;2023-06-19T10:42:14;30.70;86.30
37222;DHT22;23119;51.842;-2.230;2023-06-19T10:44:39;30.70;86.00
37222;DHT22;23119;51.842;-2.230;2023-06-19T10:47:12;30.60;85.80
37222;DHT22;23119;51.842;-2.230;2023-06-19T10:49:42;30.40;85.10
37222;DHT22;23119;51.842;-2.230;2023-06-19T10:52:08;30.10;85.50
37222;DHT22;23119;51.842;-2.230;2023-06-19T10:54:36;29.80;86.10
37222;DHT22;23119;51.842;-2.230;2023-06-19T10:57:05;30.00;86.60
37222;DHT22;23119;51.842;-2.230;2023-06-19T10:59:33;30.10;86.60
37222;DHT22;23119;51.842;-2.230;2023-06-19T11:02:00;30.00;86.60
37222;DHT22;23119;51.842;-2.230;2023-06-19T11:04:26;29.90;86.70
37222;DHT22;23119;51.842;-2.230;2023-06-19T11:06:54;29.70;87.00
37222;DHT22;23119;51.842;-2.230;2023-06-19T11:09:22;29.70;87.30
37222;DHT22;23119;51.842;-2.230;2023-06-19T11:11:48;30.00;86.80
37222;DHT22;23119;51.842;-2.230;2023-06-19T11:14:15;30.30;86.70
37222;DHT22;23119;51.842;-2.230;2023-06-19T11:16:47;30.50;85.00
37222;DHT22;23119;51.842;-2.230;2023-06-19T11:19:19;30.60;85.30
37222;DHT22;23119;51.842;-2.230;2023-06-19T11:22:07;30.60;85.00
37222;DHT22;23119;51.842;-2.230;2023-06-19T11:24:42;30.60;85.00
37222;DHT22;23119;51.842;-2.230;2023-06-19T11:27:20;30.50;84.20
37222;DHT22;23119;51.842;-2.230;2023-06-19T11:29:59;30.40;85.00
37222;DHT22;23119;51.842;-2.230;2023-06-19T11:32:32;30.20;85.10
37222;DHT22;23119;51.842;-2.230;2023-06-19T11:35:07;30.00;85.30
37222;DHT22;23119;51.842;-2.230;2023-06-19T11:37:33;29.60;85.80
37222;DHT22;23119;51.842;-2.230;2023-06-19T11:40:03;29.40;86.40
37222;DHT22;23119;51.842;-2.230;2023-06-19T11:42:47;29.20;86.90
37222;DHT22;23119;51.842;-2.230;2023-06-19T11:45:16;29.20;87.40
37222;DHT22;23119;51.842;-2.230;2023-06-19T11:47:43;29.30;87.60
37222;DHT22;23119;51.842;-2.230;2023-06-19T11:50:13;29.40;87.40
37222;DHT22;23119;51.842;-2.230;2023-06-19T11:52:39;29.60;87.10
37222;DHT22;23119;51.842;-2.230;2023-06-19T11:55:12;29.60;86.60
37222;DHT22;23119;51.842;-2.230;2023-06-19T11:57:38;29.70;86.80
37222;DHT22;23119;51.842;-2.230;2023-06-19T12:00:11;29.70;86.80
37222;DHT22;23119;51.842;-2.230;2023-06-19T12:02:38;29.60;86.90
37222;DHT22;23119;51.842;-2.230;2023-06-19T12:05:12;29.50;87.10
37222;DHT22;23119;51.842;-2.230;2023-06-19T12:07:39;29.30;87.30
37222;DHT22;23119;51.842;-2.230;2023-06-19T12:10:08;29.30;87.60
37222;DHT22;23119;51.842;-2.230;2023-06-19T12:12:37;29.40;87.70
37222;DHT22;23119;51.842;-2.230;2023-06-19T12:15:05;29.80;87.70
37222;DHT22;23119;51.842;-2.230;2023-06-19T12:17:52;30.10;87.00
37222;DHT22;23119;51.842;-2.230;2023-06-19T12:20:20;30.40;85.80
37222;DHT22;23119;51.842;-2.230;2023-06-19T12:22:48;30.50;85.90
37222;DHT22;23119;51.842;-2.230;2023-06-19T12:25:14;30.60;85.70
37222;DHT22;23119;51.842;-2.230;2023-06-19T12:27:40;30.60;85.50
37222;DHT22;23119;51.842;-2.230;2023-06-19T12:30:06;30.60;85.30
37222;DHT22;23119;51.842;-2.230;2023-06-19T12:32:33;30.60;85.70
37222;DHT22;23119;51.842;-2.230;2023-06-19T12:34:59;30.60;85.30
37222;DHT22;23119;51.842;-2.230;2023-06-19T12:37:28;30.50;85.20
37222;DHT22;23119;51.842;-2.230;2023-06-19T12:39:59;30.30;85.20
37222;DHT22;23119;51.842;-2.230;2023-06-19T12:42:28;30.40;85.40
37222;DHT22;23119;51.842;-2.230;2023-06-19T12:44:57;30.50;85.30
37222;DHT22;23119;51.842;-2.230;2023-06-19T12:47:22;30.40;85.00
37222;DHT22;23119;51.842;-2.230;2023-06-19T12:49:53;30.60;84.70
37222;DHT22;23119;51.842;-2.230;2023-06-19T12:52:19;30.70;84.00
37222;DHT22;23119;51.842;-2.230;2023-06-19T12:54:46;30.50;84.20
37222;DHT22;23119;51.842;-2.230;2023-06-19T12:57:12;30.40;84.40
37222;DHT22;23119;51.842;-2.230;2023-06-19T12:59:41;30.30;84.60
37222;DHT22;23119;51.842;-2.230;2023-06-19T13:02:09;30.20;85.30
37222;DHT22;23119;51.842;-2.230;2023-06-19T13:04:35;30.00;84.70
37222;DHT22;23119;51.842;-2.230;2023-06-19T13:07:04;29.80;84.50
37222;DHT22;23119;51.842;-2.230;2023-06-19T13:09:29;29.60;84.90
37222;DHT22;23119;51.842;-2.230;2023-06-19T13:11:58;29.50;85.80
37222;DHT22;23119;51.842;-2.230;2023-06-19T13:14:29;29.30;85.40
37222;DHT22;23119;51.842;-2.230;2023-06-19T13:16:59;29.40;84.80
37222;DHT22;23119;51.842;-2.230;2023-06-19T13:19:28;29.50;84.60
37222;DHT22;23119;51.842;-2.230;2023-06-19T13:21:55;29.80;84.30
37222;DHT22;23119;51.842;-2.230;2023-06-19T13:24:21;29.80;83.80
37222;DHT22;23119;51.842;-2.230;2023-06-19T13:26:47;29.80;83.70
37222;DHT22;23119;51.842;-2.230;2023-06-19T13:29:16;29.80;83.10
37222;DHT22;23119;51.842;-2.230;2023-06-19T13:31:46;29.70;83.20
37222;DHT22;23119;51.842;-2.230;2023-06-19T13:34:14;29.50;83.10
37222;DHT22;23119;51.842;-2.230;2023-06-19T13:36:39;29.40;83.10
37222;DHT22;23119;51.842;-2.230;2023-06-19T13:39:10;29.20;83.20
37222;DHT22;23119;51.842;-2.230;2023-06-19T13:41:38;29.00;83.90
37222;DHT22;23119;51.842;-2.230;2023-06-19T13:44:08;29.00;84.40
37222;DHT22;23119;51.842;-2.230;2023-06-19T13:46:40;28.90;84.60
37222;DHT22;23119;51.842;-2.230;2023-06-19T13:49:08;29.00;84.70
37222;DHT22;23119;51.842;-2.230;2023-06-19T13:51:46;29.10;84.40
37222;DHT22;23119;51.842;-2.230;2023-06-19T13:54:17;29.30;84.10
37222;DHT22;23119;51.842;-2.230;2023-06-19T13:56:43;29.50;83.90
37222;DHT22;23119;51.842;-2.230;2023-06-19T13:59:18;29.70;83.40
37222;DHT22;23119;51.842;-2.230;2023-06-19T14:01:49;29.40;82.60
37222;DHT22;23119;51.842;-2.230;2023-06-19T14:04:17;29.30;82.90
37222;DHT22;23119;51.842;-2.230;2023-06-19T14:06:43;29.20;83.80
37222;DHT22;23119;51.842;-2.230;2023-06-19T14:09:12;29.20;84.20
37222;DHT22;23119;51.842;-2.230;2023-06-19T14:11:43;29.20;84.30
37222;DHT22;23119;51.842;-2.230;2023-06-19T14:14:09;29.20;84.70
37222;DHT22;23119;51.842;-2.230;2023-06-19T14:16:38;29.00;84.10
37222;DHT22;23119;51.842;-2.230;2023-06-19T14:19:03;28.90;84.20
37222;DHT22;23119;51.842;-2.230;2023-06-19T14:21:29;28.70;84.30
37222;DHT22;23119;51.842;-2.230;2023-06-19T14:23:55;28.60;84.70
37222;DHT22;23119;51.842;-2.230;2023-06-19T14:26:25;28.60;84.50
37222;DHT22;23119;51.842;-2.230;2023-06-19T14:28:53;28.60;84.40
37222;DHT22;23119;51.842;-2.230;2023-06-19T14:31:25;28.80;84.10
37222;DHT22;23119;51.842;-2.230;2023-06-19T14:33:53;28.80;85.00
37222;DHT22;23119;51.842;-2.230;2023-06-19T14:36:25;28.70;83.60
37222;DHT22;23119;51.842;-2.230;2023-06-19T14:38:52;28.70;84.80
37222;DHT22;23119;51.842;-2.230;2023-06-19T14:41:23;28.70;84.10
37222;DHT22;23119;51.842;-2.230;2023-06-19T14:43:54;28.80;84.10
37222;DHT22;23119;51.842;-2.230;2023-06-19T14:46:20;28.90;83.80
37222;DHT22;23119;51.842;-2.230;2023-06-19T14:48:49;29.10;83.80
37222;DHT22;23119;51.842;-2.230;2023-06-19T14:51:17;29.20;82.70
37222;DHT22;23119;51.842;-2.230;2023-06-19T14:53:43;29.00;81.40
37222;DHT22;23119;51.842;-2.230;2023-06-19T14:56:11;29.00;82.10
37222;DHT22;23119;51.842;-2.230;2023-06-19T14:58:39;29.00;82.30
37222;DHT22;23119;51.842;-2.230;2023-06-19T15:01:05;29.00;82.40
37222;DHT22;23119;51.842;-2.230;2023-06-19T15:03:37;29.00;82.40
37222;DHT22;23119;51.842;-2.230;2023-06-19T15:06:06;29.10;82.70
37222;DHT22;23119;51.842;-2.230;2023-06-19T15:08:31;29.30;82.60
37222;DHT22;23119;51.842;-2.230;2023-06-19T15:10:59;29.40;82.30
37222;DHT22;23119;51.842;-2.230;2023-06-19T15:13:25;29.40;81.40
37222;DHT22;23119;51.842;-2.230;2023-06-19T15:15:51;29.30;81.30
37222;DHT22;23119;51.842;-2.230;2023-06-19T15:18:16;29.10;81.10
37222;DHT22;23119;51.842;-2.230;2023-06-19T15:20:45;28.90;81.20
37222;DHT22;23119;51.842;-2.230;2023-06-19T15:23:14;28.80;81.50
37222;DHT22;23119;51.842;-2.230;2023-06-19T15:25:42;28.60;81.70
37222;DHT22;23119;51.842;-2.230;2023-06-19T15:28:10;28.50;81.80
37222;DHT22;23119;51.842;-2.230;2023-06-19T15:30:36;28.50;82.00
37222;DHT22;23119;51.842;-2.230;2023-06-19T15:33:07;28.40;82.20
37222;DHT22;23119;51.842;-2.230;2023-06-19T15:35:35;28.40;82.30
37222;DHT22;23119;51.842;-2.230;2023-06-19T15:38:01;28.50;81.80